sensor_id;sensor_type;location;lat;lon;timestamp;P1;durP1;ratioP1;P2;durP2;ratioP2
50559;SDS011;36510;52.610;13.468;2022-07-06T00:00:29;1.35;;;0.82;;
50559;SDS011;36510;52.610;13.468;2022-07-06T00:05:19;3.70;;;0.90;;
50559;SDS011;36510;52.610;13.468;2022-07-06T00:10:10;2.78;;;0.90;;
50559;SDS011;36510;52.610;13.468;2022-07-06T00:15:00;2.45;;;0.80;;
50559;SDS011;36510;52.610;13.468;2022-07-06T00:19:51;3.50;;;0.88;;
50559;SDS011;36510;52.610;13.468;2022-07-06T00:24:41;3.28;;;1.20;;
50559;SDS011;36510;52.610;13.468;2022-07-06T00:29:32;4.07;;;1.20;;
50559;SDS011;36510;52.610;13.468;2022-07-06T00:34:22;3.08;;;1.20;;
50559;SDS011;36510;52.610;13.468;2022-07-06T00:39:13;2.33;;;1.10;;
50559;SDS011;36510;52.610;13.468;2022-07-06T00:44:06;3.53;;;1.10;;
50559;SDS011;36510;52.610;13.468;2022-07-06T00:48:58;1.67;;;1.15;;
50559;SDS011;36510;52.610;13.468;2022-07-06T00:53:49;3.58;;;1.60;;
50559;SDS011;36510;52.610;13.468;2022-07-06T00:58:40;2.33;;;1.00;;
50559;SDS011;36510;52.610;13.468;2022-07-06T01:03:31;7.95;;;1.38;;
50559;SDS011;36510;52.610;13.468;2022-07-06T01:08:22;3.83;;;1.25;;
50559;SDS011;36510;52.610;13.468;2022-07-06T01:13:13;4.10;;;1.35;;
50559;SDS011;36510;52.610;13.468;2022-07-06T01:18:04;4.18;;;1.45;;
50559;SDS011;36510;52.610;13.468;2022-07-06T01:22:54;4.05;;;1.27;;
50559;SDS011;36510;52.610;13.468;2022-07-06T01:27:48;4.63;;;1.33;;
50559;SDS011;36510;52.610;13.468;2022-07-06T01:32:39;3.15;;;1.23;;
50559;SDS011;36510;52.610;13.468;2022-07-06T01:37:29;3.83;;;1.45;;
50559;SDS011;36510;52.610;13.468;2022-07-06T01:42:20;5.10;;;1.55;;
50559;SDS011;36510;52.610;13.468;2022-07-06T01:47:11;3.40;;;1.30;;
50559;SDS011;36510;52.610;13.468;2022-07-06T01:52:02;1.88;;;1.15;;
50559;SDS011;36510;52.610;13.468;2022-07-06T01:56:52;2.22;;;1.10;;
50559;SDS011;36510;52.610;13.468;2022-07-06T02:01:43;2.05;;;1.20;;
50559;SDS011;36510;52.610;13.468;2022-07-06T02:06:33;3.72;;;1.20;;
50559;SDS011;36510;52.610;13.468;2022-07-06T02:11:24;3.95;;;1.20;;
50559;SDS011;36510;52.610;13.468;2022-07-06T02:16:14;6.20;;;1.40;;
50559;SDS011;36510;52.610;13.468;2022-07-06T02:21:05;3.53;;;1.30;;
50559;SDS011;36510;52.610;13.468;2022-07-06T02:25:55;2.75;;;1.40;;
50559;SDS011;36510;52.610;13.468;2022-07-06T02:30:46;2.65;;;1.27;;
50559;SDS011;36510;52.610;13.468;2022-07-06T02:35:36;5.25;;;1.35;;
50559;SDS011;36510;52.610;13.468;2022-07-06T02:40:31;8.07;;;1.35;;
50559;SDS011;36510;52.610;13.468;2022-07-06T02:45:22;5.53;;;1.30;;
50559;SDS011;36510;52.610;13.468;2022-07-06T02:50:13;5.13;;;1.83;;
50559;SDS011;36510;52.610;13.468;2022-07-06T02:55:03;3.33;;;1.40;;
50559;SDS011;36510;52.610;13.468;2022-07-06T02:59:54;4.28;;;1.40;;
50559;SDS011;36510;52.610;13.468;2022-07-06T03:04:44;2.28;;;1.40;;
50559;SDS011;36510;52.610;13.468;2022-07-06T03:09:35;6.07;;;1.77;;
50559;SDS011;36510;52.610;13.468;2022-07-06T03:14:25;1.95;;;1.30;;
50559;SDS011;36510;52.610;13.468;2022-07-06T03:19:17;3.90;;;1.67;;
50559;SDS011;36510;52.610;13.468;2022-07-06T03:24:07;4.85;;;1.75;;
50559;SDS011;36510;52.610;13.468;2022-07-06T03:28:58;3.80;;;1.52;;
50559;SDS011;36510;52.610;13.468;2022-07-06T03:33:48;3.10;;;1.80;;
50559;SDS011;36510;52.610;13.468;2022-07-06T03:38:39;3.22;;;1.50;;
50559;SDS011;36510;52.610;13.468;2022-07-06T03:43:29;3.47;;;1.50;;
50559;SDS011;36510;52.610;13.468;2022-07-06T03:48:20;4.85;;;1.60;;
50559;SDS011;36510;52.610;13.468;2022-07-06T03:53:10;5.15;;;1.70;;
50559;SDS011;36510;52.610;13.468;2022-07-06T03:58:01;4.10;;;1.63;;
50559;SDS011;36510;52.610;13.468;2022-07-06T04:02:51;3.63;;;1.40;;
50559;SDS011;36510;52.610;13.468;2022-07-06T04:07:42;5.68;;;1.50;;
50559;SDS011;36510;52.610;13.468;2022-07-06T04:12:39;4.20;;;1.42;;
50559;SDS011;36510;52.610;13.468;2022-07-06T04:17:33;3.63;;;1.25;;
50559;SDS011;36510;52.610;13.468;2022-07-06T04:22:41;7.27;;;1.67;;
50559;SDS011;36510;52.610;13.468;2022-07-06T04:27:32;3.50;;;1.10;;
50559;SDS011;36510;52.610;13.468;2022-07-06T04:32:22;4.55;;;1.60;;
50559;SDS011;36510;52.610;13.468;2022-07-06T04:37:13;5.00;;;1.50;;
50559;SDS011;36510;52.610;13.468;2022-07-06T04:42:03;3.22;;;1.38;;
50559;SDS011;36510;52.610;13.468;2022-07-06T04:46:54;2.83;;;1.42;;
50559;SDS011;36510;52.610;13.468;2022-07-06T04:51:44;6.38;;;1.50;;
50559;SDS011;36510;52.610;13.468;2022-07-06T04:56:35;4.85;;;1.80;;
50559;SDS011;36510;52.610;13.468;2022-07-06T05:01:25;3.72;;;1.35;;
50559;SDS011;36510;52.610;13.468;2022-07-06T05:06:16;4.82;;;1.45;;
50559;SDS011;36510;52.610;13.468;2022-07-06T05:11:08;4.80;;;1.33;;
50559;SDS011;36510;52.610;13.468;2022-07-06T05:15:58;5.68;;;1.40;;
50559;SDS011;36510;52.610;13.468;2022-07-06T05:20:49;3.47;;;1.10;;
50559;SDS011;36510;52.610;13.468;2022-07-06T05:25:39;4.07;;;1.33;;
50559;SDS011;36510;52.610;13.468;2022-07-06T05:30:29;4.40;;;1.17;;
50559;SDS011;36510;52.610;13.468;2022-07-06T05:35:20;4.68;;;1.20;;
50559;SDS011;36510;52.610;13.468;2022-07-06T05:40:11;4.93;;;1.20;;
50559;SDS011;36510;52.610;13.468;2022-07-06T05:45:01;3.05;;;1.10;;
50559;SDS011;36510;52.610;13.468;2022-07-06T05:49:54;2.90;;;1.30;;
50559;SDS011;36510;52.610;13.468;2022-07-06T05:55:02;5.78;;;1.27;;
50559;SDS011;36510;52.610;13.468;2022-07-06T05:59:53;3.67;;;1.13;;
50559;SDS011;36510;52.610;13.468;2022-07-06T06:04:44;5.82;;;1.50;;
50559;SDS011;36510;52.610;13.468;2022-07-06T06:09:34;5.55;;;1.10;;
50559;SDS011;36510;52.610;13.468;2022-07-06T06:14:25;6.30;;;1.40;;
50559;SDS011;36510;52.610;13.468;2022-07-06T06:19:15;6.38;;;1.50;;
50559;SDS011;36510;52.610;13.468;2022-07-06T06:24:06;5.90;;;1.45;;
50559;SDS011;36510;52.610;13.468;2022-07-06T06:28:57;3.25;;;0.95;;
50559;SDS011;36510;52.610;13.468;2022-07-06T06:33:47;3.90;;;1.08;;
50559;SDS011;36510;52.610;13.468;2022-07-06T06:38:38;4.28;;;1.10;;
50559;SDS011;36510;52.610;13.468;2022-07-06T06:43:28;5.63;;;1.30;;
50559;SDS011;36510;52.610;13.468;2022-07-06T06:48:19;4.60;;;1.50;;
50559;SDS011;36510;52.610;13.468;2022-07-06T06:53:10;4.38;;;1.33;;
50559;SDS011;36510;52.610;13.468;2022-07-06T06:58:00;3.28;;;1.00;;
50559;SDS011;36510;52.610;13.468;2022-07-06T07:02:50;2.88;;;0.90;;
50559;SDS011;36510;52.610;13.468;2022-07-06T07:07:41;3.38;;;0.75;;
50559;SDS011;36510;52.610;13.468;2022-07-06T07:12:31;5.55;;;0.82;;
50559;SDS011;36510;52.610;13.468;2022-07-06T07:17:23;3.55;;;0.88;;
50559;SDS011;36510;52.610;13.468;2022-07-06T07:22:13;4.10;;;0.77;;
50559;SDS011;36510;52.610;13.468;2022-07-06T07:27:04;3.00;;;0.60;;
50559;SDS011;36510;52.610;13.468;2022-07-06T07:31:55;3.38;;;0.90;;
50559;SDS011;36510;52.610;13.468;2022-07-06T07:36:45;3.10;;;1.02;;
50559;SDS011;36510;52.610;13.468;2022-07-06T07:41:36;5.15;;;0.75;;
50559;SDS011;36510;52.610;13.468;2022-07-06T07:46:26;4.07;;;0.90;;
50559;SDS011;36510;52.610;13.468;2022-07-06T07:51:17;4.32;;;1.00;;
50559;SDS011;36510;52.610;13.468;2022-07-06T07:56:08;2.33;;;1.08;;
50559;SDS011;36510;52.610;13.468;2022-07-06T08:00:59;4.28;;;1.10;;
50559;SDS011;36510;52.610;13.468;2022-07-06T08:05:50;3.42;;;1.00;;
50559;SDS011;36510;52.610;13.468;2022-07-06T08:10:40;3.80;;;0.90;;
50559;SDS011;36510;52.610;13.468;2022-07-06T08:15:31;4.28;;;1.10;;
50559;SDS011;36510;52.610;13.468;2022-07-06T08:20:21;3.40;;;0.80;;
50559;SDS011;36510;52.610;13.468;2022-07-06T08:25:12;1.60;;;0.70;;
50559;SDS011;36510;52.610;13.468;2022-07-06T08:30:03;4.72;;;0.93;;
50559;SDS011;36510;52.610;13.468;2022-07-06T08:34:55;2.45;;;1.13;;
50559;SDS011;36510;52.610;13.468;2022-07-06T08:39:45;2.15;;;0.80;;
50559;SDS011;36510;52.610;13.468;2022-07-06T08:44:36;3.83;;;1.30;;
50559;SDS011;36510;52.610;13.468;2022-07-06T08:49:27;6.38;;;1.42;;
50559;SDS011;36510;52.610;13.468;2022-07-06T08:54:18;4.28;;;1.00;;
50559;SDS011;36510;52.610;13.468;2022-07-06T08:59:11;3.53;;;0.90;;
50559;SDS011;36510;52.610;13.468;2022-07-06T09:04:03;2.65;;;0.80;;
50559;SDS011;36510;52.610;13.468;2022-07-06T09:08:57;10.48;;;1.60;;
50559;SDS011;36510;52.610;13.468;2022-07-06T09:13:48;6.05;;;1.45;;
50559;SDS011;36510;52.610;13.468;2022-07-06T09:18:41;1.40;;;0.80;;
50559;SDS011;36510;52.610;13.468;2022-07-06T09:23:35;3.60;;;0.90;;
50559;SDS011;36510;52.610;13.468;2022-07-06T09:28:42;2.03;;;0.55;;
50559;SDS011;36510;52.610;13.468;2022-07-06T09:33:34;4.13;;;0.80;;
50559;SDS011;36510;52.610;13.468;2022-07-06T09:38:25;3.67;;;0.90;;
50559;SDS011;36510;52.610;13.468;2022-07-06T09:43:17;1.02;;;0.55;;
50559;SDS011;36510;52.610;13.468;2022-07-06T09:48:10;3.17;;;0.70;;
50559;SDS011;36510;52.610;13.468;2022-07-06T09:53:01;4.80;;;0.63;;
50559;SDS011;36510;52.610;13.468;2022-07-06T09:57:52;5.55;;;0.90;;
50559;SDS011;36510;52.610;13.468;2022-07-06T10:02:45;2.33;;;0.60;;
50559;SDS011;36510;52.610;13.468;2022-07-06T10:07:37;2.88;;;0.60;;
50559;SDS011;36510;52.610;13.468;2022-07-06T10:12:28;4.00;;;0.65;;
50559;SDS011;36510;52.610;13.468;2022-07-06T10:17:19;2.17;;;0.70;;
50559;SDS011;36510;52.610;13.468;2022-07-06T10:22:10;2.17;;;0.60;;
50559;SDS011;36510;52.610;13.468;2022-07-06T10:27:01;2.30;;;0.80;;
50559;SDS011;36510;52.610;13.468;2022-07-06T10:31:52;5.28;;;1.00;;
50559;SDS011;36510;52.610;13.468;2022-07-06T10:36:46;2.15;;;0.70;;
50559;SDS011;36510;52.610;13.468;2022-07-06T10:41:40;4.65;;;0.88;;
50559;SDS011;36510;52.610;13.468;2022-07-06T10:46:32;2.70;;;0.80;;
50559;SDS011;36510;52.610;13.468;2022-07-06T10:51:26;7.50;;;0.60;;
50559;SDS011;36510;52.610;13.468;2022-07-06T10:56:18;2.03;;;0.68;;
50559;SDS011;36510;52.610;13.468;2022-07-06T11:01:32;2.53;;;0.73;;
50559;SDS011;36510;52.610;13.468;2022-07-06T11:06:25;1.63;;;0.40;;
50559;SDS011;36510;52.610;13.468;2022-07-06T11:16:07;2.13;;;0.60;;
50559;SDS011;36510;52.610;13.468;2022-07-06T11:21:17;1.92;;;0.50;;
50559;SDS011;36510;52.610;13.468;2022-07-06T11:26:09;3.03;;;0.75;;
50559;SDS011;36510;52.610;13.468;2022-07-06T11:31:03;2.85;;;0.60;;
50559;SDS011;36510;52.610;13.468;2022-07-06T11:36:11;3.72;;;0.60;;
50559;SDS011;36510;52.610;13.468;2022-07-06T11:41:05;2.10;;;0.80;;
50559;SDS011;36510;52.610;13.468;2022-07-06T11:45:56;3.20;;;1.02;;
50559;SDS011;36510;52.610;13.468;2022-07-06T11:51:00;2.55;;;1.05;;
50559;SDS011;36510;52.610;13.468;2022-07-06T11:55:52;3.13;;;0.70;;
50559;SDS011;36510;52.610;13.468;2022-07-06T12:00:43;2.75;;;0.70;;
50559;SDS011;36510;52.610;13.468;2022-07-06T12:05:53;3.65;;;0.65;;
50559;SDS011;36510;52.610;13.468;2022-07-06T12:10:43;2.58;;;0.70;;
50559;SDS011;36510;52.610;13.468;2022-07-06T12:15:34;1.73;;;0.52;;
50559;SDS011;36510;52.610;13.468;2022-07-06T12:20:25;2.53;;;0.80;;
50559;SDS011;36510;52.610;13.468;2022-07-06T12:25:29;4.60;;;0.80;;
50559;SDS011;36510;52.610;13.468;2022-07-06T12:30:23;1.75;;;0.70;;
50559;SDS011;36510;52.610;13.468;2022-07-06T12:35:13;2.67;;;0.65;;
50559;SDS011;36510;52.610;13.468;2022-07-06T12:40:11;1.77;;;0.55;;
50559;SDS011;36510;52.610;13.468;2022-07-06T12:45:03;0.50;;;0.40;;
50559;SDS011;36510;52.610;13.468;2022-07-06T12:50:04;2.55;;;0.52;;
50559;SDS011;36510;52.610;13.468;2022-07-06T12:54:59;1.27;;;0.50;;
50559;SDS011;36510;52.610;13.468;2022-07-06T13:04:48;3.78;;;0.80;;
50559;SDS011;36510;52.610;13.468;2022-07-06T13:09:45;2.28;;;0.65;;
50559;SDS011;36510;52.610;13.468;2022-07-06T13:14:35;2.15;;;0.60;;
50559;SDS011;36510;52.610;13.468;2022-07-06T13:19:26;1.02;;;0.50;;
50559;SDS011;36510;52.610;13.468;2022-07-06T13:24:16;2.58;;;0.60;;
50559;SDS011;36510;52.610;13.468;2022-07-06T13:29:07;4.68;;;0.85;;
50559;SDS011;36510;52.610;13.468;2022-07-06T13:34:00;1.73;;;0.60;;
50559;SDS011;36510;52.610;13.468;2022-07-06T13:38:51;2.05;;;0.40;;
50559;SDS011;36510;52.610;13.468;2022-07-06T13:43:41;1.98;;;0.40;;
50559;SDS011;36510;52.610;13.468;2022-07-06T13:48:32;2.70;;;0.47;;
50559;SDS011;36510;52.610;13.468;2022-07-06T13:53:23;3.20;;;0.80;;
50559;SDS011;36510;52.610;13.468;2022-07-06T13:58:14;3.35;;;0.40;;
50559;SDS011;36510;52.610;13.468;2022-07-06T14:03:05;2.95;;;0.65;;
50559;SDS011;36510;52.610;13.468;2022-07-06T14:07:55;1.60;;;0.40;;
50559;SDS011;36510;52.610;13.468;2022-07-06T14:12:46;2.05;;;0.43;;
50559;SDS011;36510;52.610;13.468;2022-07-06T14:17:36;1.67;;;0.43;;
50559;SDS011;36510;52.610;13.468;2022-07-06T14:22:27;3.30;;;0.52;;
50559;SDS011;36510;52.610;13.468;2022-07-06T14:27:17;2.33;;;0.45;;
50559;SDS011;36510;52.610;13.468;2022-07-06T14:32:08;2.83;;;0.50;;
50559;SDS011;36510;52.610;13.468;2022-07-06T14:36:58;4.43;;;0.50;;
50559;SDS011;36510;52.610;13.468;2022-07-06T14:41:49;2.88;;;0.40;;
50559;SDS011;36510;52.610;13.468;2022-07-06T14:46:39;3.33;;;0.75;;
50559;SDS011;36510;52.610;13.468;2022-07-06T14:51:29;1.58;;;0.50;;
50559;SDS011;36510;52.610;13.468;2022-07-06T14:56:20;1.05;;;0.55;;
50559;SDS011;36510;52.610;13.468;2022-07-06T15:01:10;3.17;;;0.63;;
50559;SDS011;36510;52.610;13.468;2022-07-06T15:06:01;1.67;;;0.55;;
50559;SDS011;36510;52.610;13.468;2022-07-06T15:10:52;2.80;;;0.52;;
50559;SDS011;36510;52.610;13.468;2022-07-06T15:15:42;3.58;;;1.15;;
50559;SDS011;36510;52.610;13.468;2022-07-06T15:20:33;3.28;;;0.77;;
50559;SDS011;36510;52.610;13.468;2022-07-06T15:25:23;3.53;;;0.60;;
50559;SDS011;36510;52.610;13.468;2022-07-06T15:30:14;0.90;;;0.45;;
50559;SDS011;36510;52.610;13.468;2022-07-06T15:35:05;5.50;;;0.90;;
50559;SDS011;36510;52.610;13.468;2022-07-06T15:39:55;3.08;;;0.80;;
50559;SDS011;36510;52.610;13.468;2022-07-06T15:44:46;1.65;;;0.60;;
50559;SDS011;36510;52.610;13.468;2022-07-06T15:49:38;2.78;;;0.68;;
50559;SDS011;36510;52.610;13.468;2022-07-06T15:54:28;1.58;;;0.70;;
50559;SDS011;36510;52.610;13.468;2022-07-06T15:59:19;2.95;;;1.23;;
50559;SDS011;36510;52.610;13.468;2022-07-06T16:04:09;3.67;;;0.70;;
50559;SDS011;36510;52.610;13.468;2022-07-06T16:09:00;3.33;;;0.70;;
50559;SDS011;36510;52.610;13.468;2022-07-06T16:13:51;2.45;;;0.65;;
50559;SDS011;36510;52.610;13.468;2022-07-06T16:18:41;2.53;;;0.68;;
50559;SDS011;36510;52.610;13.468;2022-07-06T16:23:32;4.80;;;0.70;;
50559;SDS011;36510;52.610;13.468;2022-07-06T16:28:22;4.38;;;0.77;;
50559;SDS011;36510;52.610;13.468;2022-07-06T16:33:13;3.03;;;0.88;;
50559;SDS011;36510;52.610;13.468;2022-07-06T16:38:04;2.92;;;0.80;;
50559;SDS011;36510;52.610;13.468;2022-07-06T16:42:55;2.42;;;1.00;;
50559;SDS011;36510;52.610;13.468;2022-07-06T16:47:46;1.35;;;0.52;;
50559;SDS011;36510;52.610;13.468;2022-07-06T16:52:36;1.55;;;0.45;;
50559;SDS011;36510;52.610;13.468;2022-07-06T16:57:27;2.38;;;0.52;;
50559;SDS011;36510;52.610;13.468;2022-07-06T17:02:17;1.65;;;0.60;;
50559;SDS011;36510;52.610;13.468;2022-07-06T17:07:08;0.85;;;0.32;;
50559;SDS011;36510;52.610;13.468;2022-07-06T17:11:59;1.95;;;0.50;;
50559;SDS011;36510;52.610;13.468;2022-07-06T17:16:49;2.08;;;0.40;;
50559;SDS011;36510;52.610;13.468;2022-07-06T17:21:40;0.65;;;0.40;;
50559;SDS011;36510;52.610;13.468;2022-07-06T17:26:30;2.25;;;0.40;;
50559;SDS011;36510;52.610;13.468;2022-07-06T17:31:21;1.45;;;0.52;;
50559;SDS011;36510;52.610;13.468;2022-07-06T17:36:12;2.90;;;0.50;;
50559;SDS011;36510;52.610;13.468;2022-07-06T17:41:03;2.63;;;0.50;;
50559;SDS011;36510;52.610;13.468;2022-07-06T17:45:53;1.67;;;0.70;;
50559;SDS011;36510;52.610;13.468;2022-07-06T17:50:44;1.15;;;0.50;;
50559;SDS011;36510;52.610;13.468;2022-07-06T17:55:34;1.20;;;0.50;;
50559;SDS011;36510;52.610;13.468;2022-07-06T18:00:26;1.88;;;0.50;;
50559;SDS011;36510;52.610;13.468;2022-07-06T18:05:17;2.58;;;0.60;;
50559;SDS011;36510;52.610;13.468;2022-07-06T18:10:08;3.72;;;0.68;;
50559;SDS011;36510;52.610;13.468;2022-07-06T18:14:58;0.88;;;0.50;;
50559;SDS011;36510;52.610;13.468;2022-07-06T18:19:50;1.80;;;0.50;;
50559;SDS011;36510;52.610;13.468;2022-07-06T18:24:41;2.17;;;0.52;;
50559;SDS011;36510;52.610;13.468;2022-07-06T18:29:32;2.38;;;0.40;;
50559;SDS011;36510;52.610;13.468;2022-07-06T18:34:24;1.85;;;0.50;;
50559;SDS011;36510;52.610;13.468;2022-07-06T18:39:15;4.28;;;0.70;;
50559;SDS011;36510;52.610;13.468;2022-07-06T18:44:08;1.75;;;0.50;;
50559;SDS011;36510;52.610;13.468;2022-07-06T18:48:58;3.17;;;0.60;;
50559;SDS011;36510;52.610;13.468;2022-07-06T18:53:49;1.63;;;0.55;;
50559;SDS011;36510;52.610;13.468;2022-07-06T18:58:39;0.93;;;0.47;;
50559;SDS011;36510;52.610;13.468;2022-07-06T19:03:30;2.22;;;0.60;;
50559;SDS011;36510;52.610;13.468;2022-07-06T19:08:20;3.22;;;0.80;;
50559;SDS011;36510;52.610;13.468;2022-07-06T19:13:11;1.55;;;0.60;;
50559;SDS011;36510;52.610;13.468;2022-07-06T19:18:02;1.80;;;0.63;;
50559;SDS011;36510;52.610;13.468;2022-07-06T19:22:53;1.88;;;0.95;;
50559;SDS011;36510;52.610;13.468;2022-07-06T19:27:44;2.15;;;0.93;;
50559;SDS011;36510;52.610;13.468;2022-07-06T19:32:35;4.13;;;1.70;;
50559;SDS011;36510;52.610;13.468;2022-07-06T19:37:25;3.35;;;2.25;;
50559;SDS011;36510;52.610;13.468;2022-07-06T19:42:17;5.10;;;1.60;;
50559;SDS011;36510;52.610;13.468;2022-07-06T19:47:07;2.65;;;1.20;;
50559;SDS011;36510;52.610;13.468;2022-07-06T19:51:57;3.33;;;0.90;;
50559;SDS011;36510;52.610;13.468;2022-07-06T19:56:48;1.45;;;0.70;;
50559;SDS011;36510;52.610;13.468;2022-07-06T20:01:38;3.22;;;0.80;;
50559;SDS011;36510;52.610;13.468;2022-07-06T20:06:29;1.30;;;0.60;;
50559;SDS011;36510;52.610;13.468;2022-07-06T20:11:22;1.95;;;0.60;;
50559;SDS011;36510;52.610;13.468;2022-07-06T20:16:12;2.28;;;0.70;;
50559;SDS011;36510;52.610;13.468;2022-07-06T20:21:05;1.55;;;0.68;;
50559;SDS011;36510;52.610;13.468;2022-07-06T20:25:55;2.40;;;0.80;;
50559;SDS011;36510;52.610;13.468;2022-07-06T20:30:46;3.28;;;0.65;;
50559;SDS011;36510;52.610;13.468;2022-07-06T20:35:36;3.03;;;0.80;;
50559;SDS011;36510;52.610;13.468;2022-07-06T20:40:27;4.20;;;1.10;;
50559;SDS011;36510;52.610;13.468;2022-07-06T20:45:17;4.30;;;0.95;;
50559;SDS011;36510;52.610;13.468;2022-07-06T20:50:08;3.13;;;1.10;;
50559;SDS011;36510;52.610;13.468;2022-07-06T20:54:59;4.88;;;1.25;;
50559;SDS011;36510;52.610;13.468;2022-07-06T20:59:50;3.30;;;1.45;;
50559;SDS011;36510;52.610;13.468;2022-07-06T21:04:40;5.63;;;1.70;;
50559;SDS011;36510;52.610;13.468;2022-07-06T21:09:31;3.38;;;1.20;;
50559;SDS011;36510;52.610;13.468;2022-07-06T21:14:21;5.72;;;1.60;;
50559;SDS011;36510;52.610;13.468;2022-07-06T21:19:12;4.05;;;1.83;;
50559;SDS011;36510;52.610;13.468;2022-07-06T21:24:02;3.90;;;1.65;;
50559;SDS011;36510;52.610;13.468;2022-07-06T21:28:53;4.00;;;2.10;;
50559;SDS011;36510;52.610;13.468;2022-07-06T21:33:43;4.57;;;2.45;;
50559;SDS011;36510;52.610;13.468;2022-07-06T21:38:35;3.03;;;1.80;;
50559;SDS011;36510;52.610;13.468;2022-07-06T21:43:25;3.47;;;2.10;;
50559;SDS011;36510;52.610;13.468;2022-07-06T21:48:16;2.70;;;2.00;;
50559;SDS011;36510;52.610;13.468;2022-07-06T21:53:06;3.45;;;1.92;;
50559;SDS011;36510;52.610;13.468;2022-07-06T21:57:57;4.10;;;1.90;;
50559;SDS011;36510;52.610;13.468;2022-07-06T22:02:48;4.15;;;1.85;;
50559;SDS011;36510;52.610;13.468;2022-07-06T22:07:38;3.65;;;1.80;;
50559;SDS011;36510;52.610;13.468;2022-07-06T22:12:28;3.17;;;1.92;;
50559;SDS011;36510;52.610;13.468;2022-07-06T22:17:19;3.42;;;1.95;;
50559;SDS011;36510;52.610;13.468;2022-07-06T22:22:10;4.10;;;2.03;;
50559;SDS011;36510;52.610;13.468;2022-07-06T22:27:01;5.47;;;2.20;;
50559;SDS011;36510;52.610;13.468;2022-07-06T22:31:51;4.55;;;1.98;;
50559;SDS011;36510;52.610;13.468;2022-07-06T22:36:42;5.00;;;1.60;;
50559;SDS011;36510;52.610;13.468;2022-07-06T22:41:33;2.92;;;1.77;;
50559;SDS011;36510;52.610;13.468;2022-07-06T22:46:25;4.35;;;2.08;;
50559;SDS011;36510;52.610;13.468;2022-07-06T22:51:16;4.57;;;1.80;;
50559;SDS011;36510;52.610;13.468;2022-07-06T22:56:07;3.40;;;1.80;;
50559;SDS011;36510;52.610;13.468;2022-07-06T23:00:59;5.13;;;1.90;;
50559;SDS011;36510;52.610;13.468;2022-07-06T23:05:50;4.03;;;2.03;;
50559;SDS011;36510;52.610;13.468;2022-07-06T23:10:40;2.58;;;1.90;;
50559;SDS011;36510;52.610;13.468;2022-07-06T23:15:31;3.58;;;1.95;;
50559;SDS011;36510;52.610;13.468;2022-07-06T23:20:23;2.50;;;1.63;;
50559;SDS011;36510;52.610;13.468;2022-07-06T23:25:14;3.78;;;1.85;;
50559;SDS011;36510;52.610;13.468;2022-07-06T23:30:05;2.80;;;1.80;;
50559;SDS011;36510;52.610;13.468;2022-07-06T23:34:56;4.45;;;1.90;;
50559;SDS011;36510;52.610;13.468;2022-07-06T23:39:47;4.00;;;1.85;;
50559;SDS011;36510;52.610;13.468;2022-07-06T23:44:38;5.20;;;1.73;;
50559;SDS011;36510;52.610;13.468;2022-07-06T23:49:30;3.67;;;1.77;;
50559;SDS011;36510;52.610;13.468;2022-07-06T23:54:21;5.22;;;1.80;;
50559;SDS011;36510;52.610;13.468;2022-07-06T23:59:11;3.13;;;1.50;;
